Elizabethtown, Pennsylvania
Current Conditions -  °F | °C
As of 3:56 AM on Wednesday 28 Jan 2015 (Local Time) from KMDT Reporting Station
Few Clouds Few Clouds  
Wind Chill:   Ceiling: Unl
Heat Index: 15°   Visibility: 10mi
Dew Point:   Wind: 9mph
Humidity: 59%   Direction: 300°WNW
Pressure: 30.06"   Gusts: NA
Location:  40.15°N, 76.61°W
Report Text: KMDT 280856Z 30008KT 10SM FEW250 M09/M16 A3006 RMK AO2 SLP184 T10941161 51016
Loading
Personal Weather Stations






























Interactive Weather Map New forecast layout! Learn more

10-Day Weather Forecast

Advertisements
Track Severe Weather on mobile